createdAt,value
2023-04-12T00:01:10.779Z,1.90
2023-04-12T00:03:39.511Z,1.63
2023-04-12T00:06:07.506Z,1.70
2023-04-12T00:08:35.607Z,1.60
2023-04-12T00:11:03.402Z,1.25
2023-04-12T00:13:30.773Z,1.95
2023-04-12T00:15:58.374Z,2.25
2023-04-12T00:18:25.875Z,1.95
2023-04-12T00:20:54.644Z,2.10
2023-04-12T00:23:22.583Z,2.15
2023-04-12T00:25:50.669Z,2.30
2023-04-12T00:28:18.005Z,2.30
2023-04-12T00:30:45.811Z,2.42
2023-04-12T00:33:13.478Z,2.90
2023-04-12T00:35:40.853Z,2.10
2023-04-12T00:38:10.283Z,2.80
2023-04-12T00:40:44.345Z,2.70
2023-04-12T00:43:18.145Z,2.65
2023-04-12T00:45:48.642Z,3.40
2023-04-12T00:48:15.975Z,3.33
2023-04-12T00:50:44.569Z,3.13
2023-04-12T00:53:13.568Z,3.30
2023-04-12T00:55:41.980Z,2.97
2023-04-12T00:58:09.347Z,3.05
2023-04-12T01:00:36.599Z,2.78
2023-04-12T01:03:05.296Z,2.13
2023-04-12T01:05:34.373Z,2.50
2023-04-12T01:08:19.299Z,2.80
2023-04-12T01:11:03.685Z,2.53
2023-04-12T01:13:53.087Z,2.42
2023-04-12T01:16:26.424Z,2.20
2023-04-12T01:18:57.779Z,2.40
2023-04-12T01:21:41.638Z,1.38
2023-04-12T01:24:52.744Z,1.92
2023-04-12T01:27:35.309Z,1.80
2023-04-12T01:30:02.532Z,1.50
2023-04-12T01:32:30.070Z,2.20
2023-04-12T01:34:57.835Z,2.60
2023-04-12T01:37:25.334Z,2.10
2023-04-12T01:39:53.355Z,1.98
2023-04-12T01:42:20.716Z,3.13
2023-04-12T01:44:48.691Z,1.83
2023-04-12T01:47:16.140Z,2.03
2023-04-12T01:50:13.271Z,1.77
2023-04-12T01:52:45.111Z,1.15
2023-04-12T01:55:12.715Z,1.10
2023-04-12T01:57:40.409Z,1.30
2023-04-12T02:00:10.448Z,0.90
2023-04-12T02:05:09.091Z,0.85
2023-04-12T02:07:37.303Z,1.15
2023-04-12T02:10:04.729Z,0.70
2023-04-12T02:12:32.093Z,1.05
2023-04-12T02:15:00.376Z,1.20
2023-04-12T02:17:29.377Z,1.10
2023-04-12T02:19:57.594Z,0.95
2023-04-12T02:22:24.581Z,0.88
2023-04-12T02:24:51.908Z,0.82
2023-04-12T02:27:19.272Z,0.63
2023-04-12T02:29:47.013Z,1.20
2023-04-12T02:32:15.407Z,0.80
2023-04-12T02:34:44.267Z,1.05
2023-04-12T02:39:45.344Z,1.60
2023-04-12T02:42:12.932Z,1.00
2023-04-12T02:44:43.498Z,0.90
2023-04-12T02:47:13.198Z,1.02
2023-04-12T02:49:43.944Z,1.00
2023-04-12T02:52:14.431Z,1.08
2023-04-12T02:54:57.322Z,0.80
2023-04-12T02:57:24.827Z,1.17
2023-04-12T02:59:55.178Z,1.30
2023-04-12T03:02:31.530Z,1.80
2023-04-12T03:05:03.241Z,1.50
2023-04-12T03:07:39.782Z,1.13
2023-04-12T03:10:09.086Z,1.70
2023-04-12T03:12:40.873Z,1.23
2023-04-12T03:15:17.603Z,1.60
2023-04-12T03:17:48.974Z,1.08
2023-04-12T03:20:20.022Z,1.33
2023-04-12T03:22:59.288Z,1.42
2023-04-12T03:25:28.150Z,1.83
2023-04-12T03:28:00.338Z,1.50
2023-04-12T03:30:43.822Z,1.30
2023-04-12T03:33:11.073Z,2.10
2023-04-12T03:35:38.846Z,1.20
2023-04-12T03:38:06.716Z,1.85
2023-04-12T03:40:34.405Z,2.30
2023-04-12T03:43:02.127Z,2.00
2023-04-12T03:45:30.532Z,7.82
2023-04-12T03:48:01.120Z,2.78
2023-04-12T03:50:31.940Z,3.40
2023-04-12T03:52:59.058Z,2.92
2023-04-12T03:55:31.271Z,2.57
2023-04-12T03:58:00.689Z,2.72
2023-04-12T04:03:07.539Z,3.15
2023-04-12T04:08:20.718Z,3.17
2023-04-12T04:10:51.426Z,3.00
2023-04-12T04:13:20.852Z,4.20
2023-04-12T04:15:55.395Z,3.92
2023-04-12T04:18:23.403Z,3.78
2023-04-12T04:20:50.665Z,3.47
2023-04-12T04:23:18.540Z,2.80
2023-04-12T04:25:46.059Z,2.25
2023-04-12T04:28:15.810Z,3.10
2023-04-12T04:30:45.834Z,2.40
2023-04-12T04:33:15.961Z,2.10
2023-04-12T04:35:43.903Z,1.98
2023-04-12T04:38:26.575Z,3.95
2023-04-12T04:41:04.803Z,2.58
2023-04-12T04:43:48.432Z,3.05
2023-04-12T04:46:21.286Z,4.15
2023-04-12T04:48:49.806Z,5.53
2023-04-12T04:51:17.400Z,5.40
2023-04-12T04:53:46.204Z,4.60
2023-04-12T04:56:16.522Z,4.72
2023-04-12T04:58:46.197Z,4.22
2023-04-12T05:01:17.089Z,3.50
2023-04-12T05:03:49.519Z,3.90
2023-04-12T05:06:19.405Z,3.78
2023-04-12T05:08:46.527Z,3.05
2023-04-12T05:11:16.843Z,4.03
2023-04-12T05:13:44.768Z,3.25
2023-04-12T05:16:12.608Z,3.83
2023-04-12T05:18:40.116Z,3.33
2023-04-12T05:21:07.598Z,4.60
2023-04-12T05:23:36.869Z,4.25
2023-04-12T05:26:05.561Z,4.10
2023-04-12T05:28:32.950Z,5.18
2023-04-12T05:31:00.684Z,5.15
2023-04-12T05:33:36.440Z,4.55
2023-04-12T05:36:04.552Z,3.95
2023-04-12T05:38:32.313Z,4.13
2023-04-12T05:41:05.440Z,3.90
2023-04-12T05:43:34.076Z,4.07
2023-04-12T05:46:02.496Z,7.45
2023-04-12T05:48:30.812Z,4.78
2023-04-12T05:51:02.268Z,5.07
2023-04-12T05:53:32.461Z,4.55
2023-04-12T05:56:03.431Z,6.47
2023-04-12T05:58:30.785Z,5.18
2023-04-12T06:00:58.928Z,3.72
2023-04-12T06:03:26.472Z,3.55
2023-04-12T06:05:58.426Z,3.63
2023-04-12T06:08:29.041Z,3.33
2023-04-12T06:10:56.168Z,3.05
2023-04-12T06:13:24.176Z,2.80
2023-04-12T06:15:51.901Z,3.45
2023-04-12T06:18:19.828Z,4.30
2023-04-12T06:20:47.585Z,5.18
2023-04-12T06:23:14.949Z,3.92
2023-04-12T06:25:42.472Z,4.55
2023-04-12T06:28:10.141Z,3.72
2023-04-12T06:30:43.877Z,3.15
2023-04-12T06:33:11.681Z,3.38
2023-04-12T06:35:39.863Z,2.53
2023-04-12T06:38:07.426Z,2.88
2023-04-12T06:40:34.811Z,3.60
2023-04-12T06:43:02.404Z,3.40
2023-04-12T06:45:29.513Z,3.22
2023-04-12T06:47:56.978Z,4.57
2023-04-12T06:50:25.853Z,3.60
2023-04-12T06:52:53.546Z,3.78
2023-04-12T06:55:21.298Z,3.33
2023-04-12T06:57:52.054Z,3.28
2023-04-12T07:00:19.574Z,2.90
2023-04-12T07:02:47.165Z,2.08
2023-04-12T07:05:14.607Z,1.33
2023-04-12T07:07:41.749Z,1.30
2023-04-12T07:10:09.099Z,0.73
2023-04-12T07:12:36.195Z,1.00
2023-04-12T07:15:03.882Z,0.90
2023-04-12T07:17:31.162Z,0.90
2023-04-12T07:20:01.386Z,1.30
2023-04-12T07:22:28.509Z,0.77
2023-04-12T07:24:55.431Z,1.00
2023-04-12T07:27:22.735Z,1.17
2023-04-12T07:29:52.921Z,0.70
2023-04-12T07:32:20.395Z,0.95
2023-04-12T07:34:47.801Z,1.10
2023-04-12T07:37:17.696Z,1.58
2023-04-12T07:39:45.021Z,1.50
2023-04-12T07:42:12.667Z,0.70
2023-04-12T07:44:39.879Z,0.50
2023-04-12T07:47:06.969Z,1.30
2023-04-12T07:49:34.329Z,1.13
2023-04-12T07:52:01.291Z,1.35
2023-04-12T07:54:28.963Z,1.30
2023-04-12T07:57:00.353Z,1.92
2023-04-12T07:59:27.443Z,2.08
2023-04-12T08:01:54.923Z,2.70
2023-04-12T08:04:22.135Z,0.90
2023-04-12T08:06:49.357Z,2.20
2023-04-12T08:09:16.767Z,1.92
2023-04-12T08:11:44.322Z,1.23
2023-04-12T08:14:11.409Z,2.20
2023-04-12T08:16:38.541Z,1.77
2023-04-12T08:19:05.517Z,1.80
2023-04-12T08:21:33.797Z,2.10
2023-04-12T08:24:01.477Z,6.15
2023-04-12T08:26:29.530Z,10.55
2023-04-12T08:28:58.013Z,3.80
2023-04-12T08:31:25.460Z,2.17
2023-04-12T08:33:53.850Z,1.27
2023-04-12T08:36:21.203Z,0.45
2023-04-12T08:38:52.152Z,1.98
2023-04-12T08:41:20.109Z,1.17
2023-04-12T08:43:48.389Z,1.15
2023-04-12T08:46:16.111Z,1.70
2023-04-12T08:48:47.951Z,1.80
2023-04-12T08:51:16.980Z,1.38
2023-04-12T08:53:44.463Z,1.50
2023-04-12T08:56:12.302Z,1.30
2023-04-12T08:58:45.669Z,0.93
2023-04-12T09:03:43.020Z,1.90
2023-04-12T09:06:11.123Z,1.90
2023-04-12T09:08:49.702Z,2.53
2023-04-12T09:11:27.729Z,2.35
2023-04-12T09:13:55.920Z,2.28
2023-04-12T09:16:40.375Z,2.55
2023-04-12T09:19:07.961Z,3.30
2023-04-12T09:21:35.795Z,3.20
2023-04-12T09:24:10.366Z,6.40
2023-04-12T09:26:40.209Z,3.85
2023-04-12T09:29:07.654Z,5.57
2023-04-12T09:31:35.685Z,4.18
2023-04-12T09:34:09.614Z,3.22
2023-04-12T09:36:40.153Z,2.90
2023-04-12T09:39:08.216Z,3.97
2023-04-12T09:41:36.245Z,3.45
2023-04-12T09:44:03.949Z,3.03
2023-04-12T09:46:31.540Z,3.65
2023-04-12T09:48:58.956Z,3.95
2023-04-12T09:51:28.204Z,3.35
2023-04-12T09:54:00.959Z,3.25
2023-04-12T09:56:36.280Z,2.88
2023-04-12T09:59:04.976Z,3.13
2023-04-12T10:01:39.045Z,2.40
2023-04-12T10:04:07.803Z,3.40
2023-04-12T10:06:36.049Z,3.20
2023-04-12T10:09:06.469Z,2.35
2023-04-12T10:11:37.453Z,2.83
2023-04-12T10:14:05.257Z,2.53
2023-04-12T10:16:34.008Z,3.13
2023-04-12T10:19:03.045Z,4.10
2023-04-12T10:21:31.075Z,3.15
2023-04-12T10:23:58.689Z,2.60
2023-04-12T10:26:26.113Z,3.13
2023-04-12T10:29:32.736Z,3.80
2023-04-12T10:32:23.625Z,4.65
2023-04-12T10:34:56.269Z,3.55
2023-04-12T10:38:01.554Z,3.67
2023-04-12T10:40:29.725Z,4.28
2023-04-12T10:43:18.807Z,4.88
2023-04-12T10:45:46.721Z,4.72
2023-04-12T10:48:37.968Z,2.90
2023-04-12T10:51:26.475Z,3.15
2023-04-12T10:54:08.096Z,3.78
2023-04-12T10:56:39.535Z,6.55
2023-04-12T10:59:09.574Z,4.40
2023-04-12T11:02:07.240Z,3.65
2023-04-12T11:04:40.204Z,3.00
2023-04-12T11:07:12.302Z,2.22
2023-04-12T11:09:42.736Z,2.20
2023-04-12T11:12:14.808Z,2.28
2023-04-12T11:14:49.599Z,2.47
2023-04-12T11:17:18.736Z,2.40
2023-04-12T11:19:46.513Z,2.20
2023-04-12T11:22:15.549Z,3.00
2023-04-12T11:24:47.816Z,2.42
2023-04-12T11:27:16.451Z,2.20
2023-04-12T11:29:44.222Z,1.98
2023-04-12T11:32:15.658Z,2.20
2023-04-12T11:34:45.966Z,1.90
2023-04-12T11:37:13.790Z,2.25
2023-04-12T11:39:42.642Z,2.03
2023-04-12T11:42:18.398Z,1.92
2023-04-12T11:44:55.310Z,2.10
2023-04-12T11:47:25.785Z,2.80
2023-04-12T11:49:55.718Z,2.95
2023-04-12T11:52:30.377Z,2.92
2023-04-12T11:55:09.177Z,2.65
2023-04-12T11:57:36.319Z,4.07
2023-04-12T12:00:06.257Z,4.28
2023-04-12T12:02:48.855Z,3.50
2023-04-12T12:05:24.231Z,3.40
2023-04-12T12:07:52.861Z,3.60
2023-04-12T12:10:37.728Z,4.57
2023-04-12T12:13:11.942Z,9.07
2023-04-12T12:15:39.434Z,8.02
2023-04-12T12:18:10.309Z,9.02
2023-04-12T12:20:42.250Z,12.05
2023-04-12T12:23:09.679Z,7.77
2023-04-12T12:25:37.023Z,7.13
2023-04-12T12:28:05.384Z,21.23
2023-04-12T12:30:40.201Z,8.15
2023-04-12T12:33:07.847Z,5.40
2023-04-12T12:35:35.049Z,4.80
2023-04-12T12:38:06.000Z,4.10
2023-04-12T12:40:33.181Z,5.00
2023-04-12T12:43:00.744Z,2.28
2023-04-12T12:45:29.008Z,1.98
2023-04-12T12:47:59.852Z,2.42
2023-04-12T12:50:28.362Z,2.60
2023-04-12T12:52:55.951Z,2.70
2023-04-12T12:55:23.975Z,2.00
2023-04-12T12:58:07.552Z,2.17
2023-04-12T13:00:36.313Z,1.90
2023-04-12T13:03:04.275Z,3.53
2023-04-12T13:05:31.920Z,3.47
2023-04-12T13:07:59.280Z,2.80
2023-04-12T13:10:27.085Z,2.80
2023-04-12T13:12:54.323Z,2.30
2023-04-12T13:15:24.302Z,3.35
2023-04-12T13:17:53.170Z,2.75
2023-04-12T13:20:21.128Z,4.50
2023-04-12T13:22:48.399Z,3.17
2023-04-12T13:25:15.925Z,5.57
2023-04-12T13:27:43.174Z,6.93
2023-04-12T13:30:11.251Z,7.68
2023-04-12T13:32:39.081Z,8.57
2023-04-12T13:35:06.559Z,9.07
2023-04-12T13:37:34.579Z,9.63
2023-04-12T13:40:01.848Z,9.27
2023-04-12T13:42:28.852Z,7.88
2023-04-12T13:44:56.888Z,6.50
2023-04-12T13:47:24.039Z,6.82
2023-04-12T13:49:51.575Z,6.32
2023-04-12T13:52:18.957Z,6.10
2023-04-12T13:54:46.694Z,6.22
2023-04-12T13:57:14.411Z,5.50
2023-04-12T13:59:41.811Z,6.43
2023-04-12T14:02:09.280Z,5.85
2023-04-12T14:04:37.265Z,4.90
2023-04-12T14:07:04.726Z,3.60
2023-04-12T14:09:32.808Z,4.07
2023-04-12T14:12:01.306Z,5.88
2023-04-12T14:14:28.537Z,6.68
2023-04-12T14:17:01.501Z,7.78
2023-04-12T14:19:29.253Z,8.73
2023-04-12T14:21:56.889Z,11.70
2023-04-12T14:24:24.086Z,13.45
2023-04-12T14:26:51.560Z,11.77
2023-04-12T14:29:19.120Z,12.68
2023-04-12T14:31:46.612Z,12.70
2023-04-12T14:34:13.935Z,10.70
2023-04-12T14:36:41.112Z,10.95
2023-04-12T14:39:10.808Z,11.90
2023-04-12T14:41:40.461Z,10.23
2023-04-12T14:44:07.989Z,9.63
2023-04-12T14:46:35.519Z,8.35
2023-04-12T14:49:03.183Z,9.13
2023-04-12T14:51:31.889Z,9.30
2023-04-12T14:53:59.916Z,7.03
2023-04-12T14:56:30.317Z,5.72
2023-04-12T14:58:59.570Z,4.88
2023-04-12T15:01:27.419Z,4.50
2023-04-12T15:03:54.945Z,4.90
2023-04-12T15:06:23.474Z,4.97
2023-04-12T15:08:54.636Z,5.13
2023-04-12T15:11:26.929Z,4.90
2023-04-12T15:13:54.741Z,4.72
2023-04-12T15:16:22.553Z,5.40
2023-04-12T15:18:50.768Z,5.85
2023-04-12T15:21:18.404Z,7.25
2023-04-12T15:23:45.878Z,7.32
2023-04-12T15:26:14.189Z,11.68
2023-04-12T15:28:42.774Z,9.05
2023-04-12T15:31:12.261Z,7.50
2023-04-12T15:33:39.874Z,6.53
2023-04-12T15:36:07.750Z,6.32
2023-04-12T15:38:40.847Z,7.68
2023-04-12T15:41:08.479Z,7.05
2023-04-12T15:43:35.580Z,5.78
2023-04-12T15:46:03.486Z,4.88
2023-04-12T15:48:30.870Z,4.00
2023-04-12T15:51:00.205Z,4.18
2023-04-12T15:53:27.774Z,3.90
2023-04-12T15:55:55.863Z,4.10
2023-04-12T15:58:24.036Z,3.88
2023-04-12T16:00:53.643Z,3.03
2023-04-12T16:03:23.080Z,3.85
2023-04-12T16:05:54.412Z,4.20
2023-04-12T16:08:23.067Z,4.90
2023-04-12T16:10:51.006Z,4.43
2023-04-12T16:13:18.809Z,4.40
2023-04-12T16:15:46.782Z,3.97
2023-04-12T16:18:14.529Z,4.35
2023-04-12T16:20:41.775Z,4.22
2023-04-12T16:23:09.554Z,5.68
2023-04-12T16:25:37.326Z,5.00
2023-04-12T16:28:05.742Z,3.00
2023-04-12T16:30:33.832Z,3.53
2023-04-12T16:33:01.392Z,3.92
2023-04-12T16:35:28.932Z,3.58
2023-04-12T16:37:56.404Z,5.50
2023-04-12T16:40:24.216Z,6.50
2023-04-12T16:42:51.963Z,5.15
2023-04-12T16:45:20.794Z,3.85
2023-04-12T16:47:49.299Z,3.55
2023-04-12T16:50:17.444Z,3.55
2023-04-12T16:52:44.945Z,5.60
2023-04-12T16:55:12.758Z,4.20
2023-04-12T16:57:44.588Z,4.00
2023-04-12T17:00:23.829Z,4.80
2023-04-12T17:02:52.809Z,4.05
2023-04-12T17:05:21.296Z,4.53
2023-04-12T17:07:54.260Z,4.20
2023-04-12T17:10:24.168Z,5.30
2023-04-12T17:12:54.839Z,4.88
2023-04-12T17:15:22.285Z,3.72
2023-04-12T17:17:52.594Z,4.00
2023-04-12T17:20:22.007Z,3.33
2023-04-12T17:22:49.705Z,3.13
2023-04-12T17:25:19.002Z,3.22
2023-04-12T17:27:49.059Z,4.40
2023-04-12T17:30:17.832Z,4.78
2023-04-12T17:32:49.684Z,4.63
2023-04-12T17:35:18.087Z,4.45
2023-04-12T17:37:45.796Z,3.97
2023-04-12T17:40:14.004Z,4.38
2023-04-12T17:42:41.742Z,4.82
2023-04-12T17:45:12.183Z,4.43
2023-04-12T17:47:42.834Z,4.32
2023-04-12T17:50:10.843Z,4.22
2023-04-12T17:52:38.564Z,4.95
2023-04-12T17:55:07.082Z,4.53
2023-04-12T17:57:34.739Z,4.88
2023-04-12T18:00:02.269Z,4.80
2023-04-12T18:02:40.198Z,6.70
2023-04-12T18:05:07.924Z,7.28
2023-04-12T18:07:35.178Z,9.15
2023-04-12T18:10:02.994Z,10.80
2023-04-12T18:12:30.793Z,8.85
2023-04-12T18:14:57.786Z,10.23
2023-04-12T18:17:26.609Z,9.48
2023-04-12T18:19:54.482Z,8.80
2023-04-12T18:22:23.549Z,8.30
2023-04-12T18:24:50.530Z,8.38
2023-04-12T18:27:17.664Z,6.95
2023-04-12T18:29:45.081Z,9.13
2023-04-12T18:32:12.544Z,10.63
2023-04-12T18:34:39.551Z,12.60
2023-04-12T18:37:07.553Z,12.18
2023-04-12T18:39:35.372Z,6.68
2023-04-12T18:42:02.656Z,6.07
2023-04-12T18:44:30.076Z,6.63
2023-04-12T18:46:57.379Z,6.15
2023-04-12T18:49:26.022Z,5.28
2023-04-12T18:51:53.566Z,4.43
2023-04-12T18:54:21.147Z,4.82
2023-04-12T18:56:49.274Z,4.82
2023-04-12T18:59:17.271Z,4.80
2023-04-12T19:01:45.857Z,4.90
2023-04-12T19:04:15.954Z,6.10
2023-04-12T19:06:44.592Z,5.97
2023-04-12T19:09:12.160Z,6.32
2023-04-12T19:11:39.665Z,7.00
2023-04-12T19:14:07.954Z,6.95
2023-04-12T19:16:36.114Z,8.02
2023-04-12T19:19:05.946Z,6.88
2023-04-12T19:21:34.233Z,7.75
2023-04-12T19:24:01.607Z,6.93
2023-04-12T19:26:32.065Z,6.57
2023-04-12T19:29:02.184Z,6.85
2023-04-12T19:31:29.527Z,6.45
2023-04-12T19:33:58.402Z,6.82
2023-04-12T19:36:27.133Z,7.07
2023-04-12T19:38:54.838Z,7.13
2023-04-12T19:41:23.726Z,7.40
2023-04-12T19:43:51.001Z,7.10
2023-04-12T19:46:18.404Z,6.65
2023-04-12T19:48:46.343Z,7.13
2023-04-12T19:51:14.927Z,6.13
2023-04-12T19:53:42.644Z,7.43
2023-04-12T19:56:12.386Z,9.10
2023-04-12T19:58:40.605Z,11.63
2023-04-12T20:01:09.601Z,10.13
2023-04-12T20:03:37.679Z,8.30
2023-04-12T20:06:05.147Z,8.35
2023-04-12T20:08:32.824Z,7.10
2023-04-12T20:11:00.008Z,8.00
2023-04-12T20:13:28.395Z,7.75
2023-04-12T20:15:55.794Z,8.27
2023-04-12T20:18:23.374Z,8.48
2023-04-12T20:20:51.632Z,9.38
2023-04-12T20:23:19.631Z,9.85
2023-04-12T20:25:48.578Z,11.70
2023-04-12T20:28:16.954Z,11.45
2023-04-12T20:30:46.999Z,14.73
2023-04-12T20:33:14.809Z,19.00
2023-04-12T20:35:42.156Z,17.27
2023-04-12T20:38:09.347Z,15.05
2023-04-12T20:40:36.660Z,14.40
2023-04-12T20:43:04.339Z,14.50
2023-04-12T20:45:31.893Z,12.18
2023-04-12T20:47:59.412Z,10.52
2023-04-12T20:50:26.606Z,11.23
2023-04-12T20:52:56.017Z,12.35
2023-04-12T20:55:24.898Z,17.05
2023-04-12T20:57:55.878Z,24.92
2023-04-12T21:00:23.532Z,23.60
2023-04-12T21:02:52.474Z,19.73
2023-04-12T21:05:20.292Z,17.20
2023-04-12T21:07:47.752Z,12.48
2023-04-12T21:10:15.249Z,10.40
2023-04-12T21:12:44.529Z,10.00
2023-04-12T21:15:12.126Z,13.10
2023-04-12T21:17:40.152Z,12.82
2023-04-12T21:20:13.348Z,10.40
2023-04-12T21:22:41.957Z,9.93
2023-04-12T21:25:14.819Z,8.60
2023-04-12T21:27:42.478Z,6.75
2023-04-12T21:30:13.798Z,5.60
2023-04-12T21:32:42.346Z,5.72
2023-04-12T21:35:10.778Z,6.10
2023-04-12T21:37:39.430Z,3.85
2023-04-12T21:40:12.145Z,4.03
2023-04-12T21:45:08.583Z,3.58
2023-04-12T21:47:35.780Z,3.25
2023-04-12T21:50:03.014Z,3.80
2023-04-12T21:52:30.646Z,3.35
2023-04-12T21:54:58.070Z,3.60
2023-04-12T21:57:25.435Z,2.97
2023-04-12T21:59:52.419Z,3.53
2023-04-12T22:02:19.701Z,2.30
2023-04-12T22:04:47.661Z,2.90
2023-04-12T22:07:17.462Z,3.17
2023-04-12T22:09:45.035Z,3.83
2023-04-12T22:12:13.022Z,2.67
2023-04-12T22:14:46.318Z,2.47
2023-04-12T22:17:14.500Z,3.17
2023-04-12T22:19:42.380Z,3.35
2023-04-12T22:22:10.854Z,3.30
2023-04-12T22:24:38.478Z,3.65
2023-04-12T22:27:06.976Z,3.53
2023-04-12T22:29:34.308Z,3.58
2023-04-12T22:32:02.405Z,3.92
2023-04-12T22:34:29.717Z,3.70
2023-04-12T22:36:59.677Z,3.28
2023-04-12T22:39:27.080Z,2.95
2023-04-12T22:41:57.442Z,3.40
2023-04-12T22:44:25.161Z,3.95
2023-04-12T22:46:54.220Z,4.57
2023-04-12T22:49:27.266Z,4.45
2023-04-12T22:54:23.108Z,3.88
2023-04-12T22:56:50.416Z,2.75
2023-04-12T22:59:18.684Z,3.97
2023-04-12T23:01:46.581Z,3.30
2023-04-12T23:04:14.389Z,3.65
2023-04-12T23:06:43.322Z,3.75
2023-04-12T23:09:11.567Z,4.13
2023-04-12T23:11:39.629Z,4.60
2023-04-12T23:14:07.839Z,5.15
2023-04-12T23:16:35.357Z,5.40
2023-04-12T23:19:05.189Z,5.05
2023-04-12T23:21:33.101Z,4.55
2023-04-12T23:24:00.773Z,5.65
2023-04-12T23:26:28.104Z,5.03
2023-04-12T23:28:55.418Z,2.92
2023-04-12T23:31:23.125Z,5.63
2023-04-12T23:33:50.402Z,4.07
2023-04-12T23:36:21.671Z,5.95
2023-04-12T23:38:55.024Z,5.25
2023-04-12T23:41:22.235Z,5.03
2023-04-12T23:43:49.345Z,6.55
2023-04-12T23:46:17.004Z,7.40
2023-04-12T23:48:44.199Z,6.43
2023-04-12T23:51:11.375Z,6.07
2023-04-12T23:53:38.908Z,5.82
2023-04-12T23:56:06.689Z,6.13
2023-04-12T23:58:34.381Z,6.15
